Callander, Canada
Current Conditions -  °F | °C
As of 4:58 AM on Tuesday 21 Oct 2014 (Local Time) from CYYB Reporting Station
Light Rain Light Rain  
Wind Chill: -2°   Ceiling: 800
Heat Index:   Visibility: 9mi
Dew Point:   Wind: 14mph
Humidity: 93%   Direction: 30°NNE
Pressure: 29.91"   Gusts: 20mph
Location:  46.22°N, 79.36°W
Report Text: CYYB 210858Z AUTO 03012G17KT 9SM -RA BKN008 OVC016 03/02 A2991 RMK SLP142
Loading
Personal Weather Stations






























Interactive Weather Map
Tropical Storm Tracking
New forecast layout! Learn more

10-Day Weather Forecast

Advertisements
Track Severe Weather on mobile